sensor_id;sensor_type;location;lat;lon;timestamp;pressure;altitude;pressure_sealevel;temperature;humidity
13011;BME280;6786;57.632;11.962;2022-07-03T00:02:08;101266.91;;;22.27;63.54
13011;BME280;6786;57.632;11.962;2022-07-03T00:04:36;101269.63;;;22.27;63.16
13011;BME280;6786;57.632;11.962;2022-07-03T00:07:05;101247.53;;;22.14;63.44
13011;BME280;6786;57.632;11.962;2022-07-03T00:09:33;101211.81;;;21.93;63.32
13011;BME280;6786;57.632;11.962;2022-07-03T00:12:01;101258.41;;;22.22;63.36
13011;BME280;6786;57.632;11.962;2022-07-03T00:14:29;101270.34;;;22.29;63.18
13011;BME280;6786;57.632;11.962;2022-07-03T00:16:58;101269.63;;;22.27;63.39
13011;BME280;6786;57.632;11.962;2022-07-03T00:19:26;101266.34;;;22.23;63.20
13011;BME280;6786;57.632;11.962;2022-07-03T00:21:56;101268.59;;;22.28;63.28
13011;BME280;6786;57.632;11.962;2022-07-03T00:24:29;101254.47;;;22.26;63.28
13011;BME280;6786;57.632;11.962;2022-07-03T00:27:01;101259.84;;;22.26;63.35
13011;BME280;6786;57.632;11.962;2022-07-03T00:29:31;101239.16;;;22.17;63.07
13011;BME280;6786;57.632;11.962;2022-07-03T00:32:05;101261.53;;;22.27;63.08
13011;BME280;6786;57.632;11.962;2022-07-03T00:34:34;101266.91;;;22.27;63.24
13011;BME280;6786;57.632;11.962;2022-07-03T00:37:03;101259.56;;;22.19;62.99
13011;BME280;6786;57.632;11.962;2022-07-03T00:39:37;101265.22;;;22.26;62.93
13011;BME280;6786;57.632;11.962;2022-07-03T00:42:07;101264.22;;;22.27;62.87
13011;BME280;6786;57.632;11.962;2022-07-03T00:44:44;101259.84;;;22.26;63.08
13011;BME280;6786;57.632;11.962;2022-07-03T00:47:13;101241.97;;;22.25;63.13
13011;BME280;6786;57.632;11.962;2022-07-03T00:49:44;101243.97;;;22.23;62.83
13011;BME280;6786;57.632;11.962;2022-07-03T00:52:14;101205.59;;;22.02;63.01
13011;BME280;6786;57.632;11.962;2022-07-03T00:54:45;101252.72;;;22.25;62.88
13011;BME280;6786;57.632;11.962;2022-07-03T00:57:19;101259.13;;;22.24;62.93
13011;BME280;6786;57.632;11.962;2022-07-03T00:59:48;101251.03;;;22.24;62.77
13011;BME280;6786;57.632;11.962;2022-07-03T01:02:24;101256.44;;;22.24;63.08
13011;BME280;6786;57.632;11.962;2022-07-03T01:05:03;101242.97;;;22.24;63.06
13011;BME280;6786;57.632;11.962;2022-07-03T01:07:41;101229.50;;;22.24;63.24
13011;BME280;6786;57.632;11.962;2022-07-03T01:10:17;101238.59;;;22.23;63.12
13011;BME280;6786;57.632;11.962;2022-07-03T01:12:56;101242.97;;;22.24;62.58
13011;BME280;6786;57.632;11.962;2022-07-03T01:15:36;101234.91;;;22.24;62.78
13011;BME280;6786;57.632;11.962;2022-07-03T01:18:18;101233.19;;;22.23;62.62
13011;BME280;6786;57.632;11.962;2022-07-03T01:20:52;101236.56;;;22.25;62.79
13011;BME280;6786;57.632;11.962;2022-07-03T01:23:30;101224.13;;;22.24;62.41
13011;BME280;6786;57.632;11.962;2022-07-03T01:26:02;101220.44;;;22.25;62.88
13011;BME280;6786;57.632;11.962;2022-07-03T01:28:32;101220.44;;;22.25;62.77
13011;BME280;6786;57.632;11.962;2022-07-03T01:31:01;101229.38;;;22.25;62.72
13011;BME280;6786;57.632;11.962;2022-07-03T01:33:31;101145.97;;;21.78;62.95
13011;BME280;6786;57.632;11.962;2022-07-03T01:36:04;101227.53;;;22.26;62.56
13011;BME280;6786;57.632;11.962;2022-07-03T01:38:35;101232.91;;;22.26;62.81
13011;BME280;6786;57.632;11.962;2022-07-03T01:41:05;101185.59;;;21.95;62.81
13011;BME280;6786;57.632;11.962;2022-07-03T01:43:36;101202.31;;;22.08;62.62
13011;BME280;6786;57.632;11.962;2022-07-03T01:46:05;101207.72;;;22.08;62.64
13011;BME280;6786;57.632;11.962;2022-07-03T01:48:34;101231.19;;;22.25;62.89
13011;BME280;6786;57.632;11.962;2022-07-03T01:51:03;101229.50;;;22.24;62.86
13011;BME280;6786;57.632;11.962;2022-07-03T01:53:32;101209.53;;;22.17;62.75
13011;BME280;6786;57.632;11.962;2022-07-03T01:56:00;101223.84;;;22.27;62.56
13011;BME280;6786;57.632;11.962;2022-07-03T01:58:31;101229.50;;;22.24;62.79
13011;BME280;6786;57.632;11.962;2022-07-03T02:01:01;101221.00;;;22.19;62.80
13011;BME280;6786;57.632;11.962;2022-07-03T02:03:32;101230.22;;;22.26;62.52
13011;BME280;6786;57.632;11.962;2022-07-03T02:06:04;101229.22;;;22.27;62.69
13011;BME280;6786;57.632;11.962;2022-07-03T02:08:43;101157.44;;;21.80;62.57
13011;BME280;6786;57.632;11.962;2022-07-03T02:11:35;101238.59;;;22.23;62.67
13011;BME280;6786;57.632;11.962;2022-07-03T02:14:11;101232.06;;;22.25;62.32
13011;BME280;6786;57.632;11.962;2022-07-03T02:17:02;101249.06;;;22.26;61.98
13011;BME280;6786;57.632;11.962;2022-07-03T02:19:37;101242.81;;;22.25;62.25
13011;BME280;6786;57.632;11.962;2022-07-03T02:22:11;101236.56;;;22.25;62.75
13011;BME280;6786;57.632;11.962;2022-07-03T02:24:42;101242.97;;;22.24;62.71
13011;BME280;6786;57.632;11.962;2022-07-03T02:27:15;101198.91;;;22.06;62.57
13011;BME280;6786;57.632;11.962;2022-07-03T02:29:47;101238.59;;;22.23;62.37
13011;BME280;6786;57.632;11.962;2022-07-03T02:32:20;101240.28;;;22.24;62.57
13011;BME280;6786;57.632;11.962;2022-07-03T02:34:53;101236.56;;;22.25;62.67
13011;BME280;6786;57.632;11.962;2022-07-03T02:37:24;101230.22;;;22.26;62.63
13011;BME280;6786;57.632;11.962;2022-07-03T02:40:01;101234.91;;;22.24;62.16
13011;BME280;6786;57.632;11.962;2022-07-03T02:42:36;101240.28;;;22.24;62.24
13011;BME280;6786;57.632;11.962;2022-07-03T02:45:09;101233.88;;;22.25;62.42
13011;BME280;6786;57.632;11.962;2022-07-03T02:47:45;101230.06;;;22.18;62.42
13011;BME280;6786;57.632;11.962;2022-07-03T02:50:17;101234.91;;;22.24;62.59
13011;BME280;6786;57.632;11.962;2022-07-03T02:52:56;101235.75;;;22.24;62.18
13011;BME280;6786;57.632;11.962;2022-07-03T02:55:39;101231.34;;;22.23;62.46
13011;BME280;6786;57.632;11.962;2022-07-03T02:58:27;101226.81;;;22.24;61.95
13011;BME280;6786;57.632;11.962;2022-07-03T03:01:07;101235.19;;;22.21;62.52
13011;BME280;6786;57.632;11.962;2022-07-03T03:03:37;101233.19;;;22.23;62.61
13011;BME280;6786;57.632;11.962;2022-07-03T03:06:14;101234.91;;;22.24;62.52
13011;BME280;6786;57.632;11.962;2022-07-03T03:08:48;101226.38;;;22.19;62.16
13011;BME280;6786;57.632;11.962;2022-07-03T03:11:29;101231.19;;;22.25;62.14
13011;BME280;6786;57.632;11.962;2022-07-03T03:14:00;101244.66;;;22.25;62.10
13011;BME280;6786;57.632;11.962;2022-07-03T03:16:33;101211.09;;;22.10;62.22
13011;BME280;6786;57.632;11.962;2022-07-03T03:19:01;101240.28;;;22.24;62.13
13011;BME280;6786;57.632;11.962;2022-07-03T03:21:31;101246.66;;;22.23;62.21
13011;BME280;6786;57.632;11.962;2022-07-03T03:24:06;101245.66;;;22.24;62.24
13011;BME280;6786;57.632;11.962;2022-07-03T03:26:34;101252.72;;;22.25;62.20
13011;BME280;6786;57.632;11.962;2022-07-03T03:29:02;101238.31;;;22.26;62.35
13011;BME280;6786;57.632;11.962;2022-07-03T03:31:33;101209.69;;;22.06;62.38
13011;BME280;6786;57.632;11.962;2022-07-03T03:34:01;101231.19;;;22.25;62.41
13011;BME280;6786;57.632;11.962;2022-07-03T03:36:31;101236.56;;;22.25;62.09
13011;BME280;6786;57.632;11.962;2022-07-03T03:38:59;101231.19;;;22.25;62.43
13011;BME280;6786;57.632;11.962;2022-07-03T03:41:29;101234.91;;;22.24;62.12
13011;BME280;6786;57.632;11.962;2022-07-03T03:43:57;101231.19;;;22.25;62.03
13011;BME280;6786;57.632;11.962;2022-07-03T03:46:25;101236.56;;;22.25;62.20
13011;BME280;6786;57.632;11.962;2022-07-03T03:48:54;101227.53;;;22.26;62.33
13011;BME280;6786;57.632;11.962;2022-07-03T03:51:23;101222.16;;;22.26;62.08
13011;BME280;6786;57.632;11.962;2022-07-03T03:53:51;101128.66;;;21.71;62.04
13011;BME280;6786;57.632;11.962;2022-07-03T03:56:19;101228.66;;;22.23;62.05
13011;BME280;6786;57.632;11.962;2022-07-03T03:58:47;101231.19;;;22.25;62.07
13011;BME280;6786;57.632;11.962;2022-07-03T04:01:15;101223.41;;;22.22;62.23
13011;BME280;6786;57.632;11.962;2022-07-03T04:03:43;101231.19;;;22.25;62.24
13011;BME280;6786;57.632;11.962;2022-07-03T04:06:12;101220.16;;;22.18;62.20
13011;BME280;6786;57.632;11.962;2022-07-03T04:08:40;101226.66;;;22.25;61.91
13011;BME280;6786;57.632;11.962;2022-07-03T04:11:08;101190.97;;;21.95;62.12
13011;BME280;6786;57.632;11.962;2022-07-03T04:13:36;101231.19;;;22.25;62.02
13011;BME280;6786;57.632;11.962;2022-07-03T04:16:04;101221.44;;;22.24;62.43
13011;BME280;6786;57.632;11.962;2022-07-03T04:18:33;101225.13;;;22.23;61.96
13011;BME280;6786;57.632;11.962;2022-07-03T04:21:01;101224.97;;;22.15;62.09
13011;BME280;6786;57.632;11.962;2022-07-03T04:23:30;101222.00;;;22.18;62.29
13011;BME280;6786;57.632;11.962;2022-07-03T04:26:03;101212.50;;;22.04;62.22
13011;BME280;6786;57.632;11.962;2022-07-03T04:28:31;101149.94;;;21.74;62.32
13011;BME280;6786;57.632;11.962;2022-07-03T04:31:00;101234.06;;;22.14;62.39
13011;BME280;6786;57.632;11.962;2022-07-03T04:33:28;101231.47;;;22.22;62.03
13011;BME280;6786;57.632;11.962;2022-07-03T04:35:56;101242.25;;;22.22;62.29
13011;BME280;6786;57.632;11.962;2022-07-03T04:38:24;101194.94;;;21.91;62.11
13011;BME280;6786;57.632;11.962;2022-07-03T04:40:53;101243.97;;;22.23;62.16
13011;BME280;6786;57.632;11.962;2022-07-03T04:43:21;101234.91;;;22.24;62.23
13011;BME280;6786;57.632;11.962;2022-07-03T04:45:48;101238.59;;;22.23;62.39
13011;BME280;6786;57.632;11.962;2022-07-03T04:48:16;101237.72;;;22.22;62.49
13011;BME280;6786;57.632;11.962;2022-07-03T04:50:44;101231.47;;;22.22;62.48
13011;BME280;6786;57.632;11.962;2022-07-03T04:53:12;101163.78;;;21.79;62.32
13011;BME280;6786;57.632;11.962;2022-07-03T04:55:40;101236.88;;;22.22;62.52
13011;BME280;6786;57.632;11.962;2022-07-03T04:58:10;101227.81;;;22.23;62.47
13011;BME280;6786;57.632;11.962;2022-07-03T05:00:38;101224.13;;;22.24;62.25
13011;BME280;6786;57.632;11.962;2022-07-03T05:03:10;101212.81;;;22.11;62.09
13011;BME280;6786;57.632;11.962;2022-07-03T05:05:38;101226.09;;;22.22;62.52
13011;BME280;6786;57.632;11.962;2022-07-03T05:08:06;101215.91;;;22.16;62.39
13011;BME280;6786;57.632;11.962;2022-07-03T05:10:34;101208.28;;;22.02;62.18
13011;BME280;6786;57.632;11.962;2022-07-03T05:13:02;101229.66;;;22.22;62.34
13011;BME280;6786;57.632;11.962;2022-07-03T05:15:31;101226.38;;;22.19;62.40
13011;BME280;6786;57.632;11.962;2022-07-03T05:17:59;101226.09;;;22.22;62.09
13011;BME280;6786;57.632;11.962;2022-07-03T05:20:27;101205.97;;;22.07;62.43
13011;BME280;6786;57.632;11.962;2022-07-03T05:22:57;101227.81;;;22.23;62.55
13011;BME280;6786;57.632;11.962;2022-07-03T05:25:25;101210.94;;;22.21;62.16
13011;BME280;6786;57.632;11.962;2022-07-03T05:27:54;101215.31;;;22.22;62.15
13011;BME280;6786;57.632;11.962;2022-07-03T05:30:23;101220.72;;;22.22;62.13
13011;BME280;6786;57.632;11.962;2022-07-03T05:32:53;101225.13;;;22.23;62.14
13011;BME280;6786;57.632;11.962;2022-07-03T05:35:21;101219.03;;;22.21;62.18
13011;BME280;6786;57.632;11.962;2022-07-03T05:37:49;101211.94;;;22.20;62.53
13011;BME280;6786;57.632;11.962;2022-07-03T05:40:17;101213.63;;;22.21;62.23
13011;BME280;6786;57.632;11.962;2022-07-03T05:42:45;101207.81;;;22.16;62.42
13011;BME280;6786;57.632;11.962;2022-07-03T05:45:13;101212.63;;;22.22;62.21
13011;BME280;6786;57.632;11.962;2022-07-03T05:47:41;101210.81;;;22.22;62.57
13011;BME280;6786;57.632;11.962;2022-07-03T05:50:11;101207.38;;;22.20;62.55
13011;BME280;6786;57.632;11.962;2022-07-03T05:52:38;101195.34;;;22.15;62.32
13011;BME280;6786;57.632;11.962;2022-07-03T05:55:07;101210.94;;;22.21;62.41
13011;BME280;6786;57.632;11.962;2022-07-03T05:57:36;101213.63;;;22.21;62.60
13011;BME280;6786;57.632;11.962;2022-07-03T06:00:05;101221.72;;;22.21;62.42
13011;BME280;6786;57.632;11.962;2022-07-03T06:02:33;101219.03;;;22.21;62.58
13011;BME280;6786;57.632;11.962;2022-07-03T06:05:01;101213.63;;;22.21;62.64
13011;BME280;6786;57.632;11.962;2022-07-03T06:07:30;101203.72;;;22.21;62.27
13011;BME280;6786;57.632;11.962;2022-07-03T06:09:58;101209.13;;;22.21;62.42
13011;BME280;6786;57.632;11.962;2022-07-03T06:12:26;101192.38;;;22.18;62.41
13011;BME280;6786;57.632;11.962;2022-07-03T06:14:54;101200.88;;;22.23;62.29
13011;BME280;6786;57.632;11.962;2022-07-03T06:17:27;101194.66;;;22.22;62.35
13011;BME280;6786;57.632;11.962;2022-07-03T06:19:55;101199.16;;;22.22;62.67
13011;BME280;6786;57.632;11.962;2022-07-03T06:22:23;101197.34;;;22.22;62.65
13011;BME280;6786;57.632;11.962;2022-07-03T06:24:53;101190.13;;;22.23;62.66
13011;BME280;6786;57.632;11.962;2022-07-03T06:27:20;101199.88;;;22.24;62.70
13011;BME280;6786;57.632;11.962;2022-07-03T06:29:49;101195.50;;;22.23;62.71
13011;BME280;6786;57.632;11.962;2022-07-03T06:32:17;101193.50;;;22.25;62.69
13011;BME280;6786;57.632;11.962;2022-07-03T06:34:45;101195.50;;;22.23;62.77
13011;BME280;6786;57.632;11.962;2022-07-03T06:37:13;101186.41;;;22.24;62.73
13011;BME280;6786;57.632;11.962;2022-07-03T06:39:41;101189.13;;;22.24;62.68
13011;BME280;6786;57.632;11.962;2022-07-03T06:42:11;101175.22;;;22.19;62.84
13011;BME280;6786;57.632;11.962;2022-07-03T06:44:39;101125.56;;;21.85;62.50
13011;BME280;6786;57.632;11.962;2022-07-03T06:47:08;101183.00;;;22.22;62.70
13011;BME280;6786;57.632;11.962;2022-07-03T06:49:36;101148.78;;;22.05;62.65
13011;BME280;6786;57.632;11.962;2022-07-03T06:52:04;101180.19;;;22.23;62.74
13011;BME280;6786;57.632;11.962;2022-07-03T06:54:33;101177.34;;;22.25;62.77
13011;BME280;6786;57.632;11.962;2022-07-03T06:57:00;101170.25;;;22.24;62.66
13011;BME280;6786;57.632;11.962;2022-07-03T06:59:30;101171.94;;;22.25;62.48
13011;BME280;6786;57.632;11.962;2022-07-03T07:01:57;101160.34;;;22.24;62.95
13011;BME280;6786;57.632;11.962;2022-07-03T07:04:25;101170.25;;;22.24;62.53
13011;BME280;6786;57.632;11.962;2022-07-03T07:06:53;101174.66;;;22.25;62.75
13011;BME280;6786;57.632;11.962;2022-07-03T07:09:21;101170.25;;;22.24;62.71
13011;BME280;6786;57.632;11.962;2022-07-03T07:11:49;101162.19;;;22.24;62.72
13011;BME280;6786;57.632;11.962;2022-07-03T07:14:17;101165.88;;;22.23;62.65
13011;BME280;6786;57.632;11.962;2022-07-03T07:16:46;101168.56;;;22.23;62.65
13011;BME280;6786;57.632;11.962;2022-07-03T07:19:14;101164.00;;;22.23;62.81
13011;BME280;6786;57.632;11.962;2022-07-03T07:21:43;101163.19;;;22.23;62.70
13011;BME280;6786;57.632;11.962;2022-07-03T07:24:12;101167.56;;;22.24;62.82
13011;BME280;6786;57.632;11.962;2022-07-03T07:26:40;101160.50;;;22.23;62.71
13011;BME280;6786;57.632;11.962;2022-07-03T07:29:08;101163.19;;;22.23;62.92
13011;BME280;6786;57.632;11.962;2022-07-03T07:31:36;101147.63;;;22.17;62.73
13011;BME280;6786;57.632;11.962;2022-07-03T07:34:05;101163.19;;;22.23;62.99
13011;BME280;6786;57.632;11.962;2022-07-03T07:36:33;101156.81;;;22.24;63.11
13011;BME280;6786;57.632;11.962;2022-07-03T07:39:01;101142.53;;;22.14;62.97
13011;BME280;6786;57.632;11.962;2022-07-03T07:41:29;101129.75;;;22.16;62.76
13011;BME280;6786;57.632;11.962;2022-07-03T07:43:57;101112.06;;;22.04;62.80
13011;BME280;6786;57.632;11.962;2022-07-03T07:46:25;101147.03;;;22.23;63.03
13011;BME280;6786;57.632;11.962;2022-07-03T07:48:53;101136.25;;;22.23;63.06
13011;BME280;6786;57.632;11.962;2022-07-03T07:51:22;101128.19;;;22.23;62.75
13011;BME280;6786;57.632;11.962;2022-07-03T07:53:50;101131.72;;;22.23;62.93
13011;BME280;6786;57.632;11.962;2022-07-03T07:56:23;101123.47;;;22.25;63.08
13011;BME280;6786;57.632;11.962;2022-07-03T07:58:51;101118.69;;;22.19;63.03
13011;BME280;6786;57.632;11.962;2022-07-03T08:01:19;101128.88;;;22.25;63.03
13011;BME280;6786;57.632;11.962;2022-07-03T08:04:05;101120.69;;;22.17;62.88
13011;BME280;6786;57.632;11.962;2022-07-03T08:06:52;101128.88;;;22.25;63.00
13011;BME280;6786;57.632;11.962;2022-07-03T08:09:20;101128.88;;;22.25;63.07
13011;BME280;6786;57.632;11.962;2022-07-03T08:11:48;101134.25;;;22.25;62.92
13011;BME280;6786;57.632;11.962;2022-07-03T08:14:15;101126.03;;;22.26;63.16
13011;BME280;6786;57.632;11.962;2022-07-03T08:16:43;101124.34;;;22.25;62.90
13011;BME280;6786;57.632;11.962;2022-07-03T08:19:13;101102.84;;;22.06;63.07
13011;BME280;6786;57.632;11.962;2022-07-03T08:21:41;101069.75;;;21.87;62.98
13011;BME280;6786;57.632;11.962;2022-07-03T08:24:10;101120.09;;;22.23;63.05
13011;BME280;6786;57.632;11.962;2022-07-03T08:26:39;101107.91;;;22.19;62.96
13011;BME280;6786;57.632;11.962;2022-07-03T08:29:07;101116.13;;;22.27;63.02
13011;BME280;6786;57.632;11.962;2022-07-03T08:31:36;101117.81;;;22.28;62.61
13011;BME280;6786;57.632;11.962;2022-07-03T08:34:05;101116.13;;;22.27;62.82
13011;BME280;6786;57.632;11.962;2022-07-03T08:36:32;101120.50;;;22.28;62.88
13011;BME280;6786;57.632;11.962;2022-07-03T08:39:00;101111.03;;;22.24;62.85
13011;BME280;6786;57.632;11.962;2022-07-03T08:41:30;101109.88;;;22.26;63.00
13011;BME280;6786;57.632;11.962;2022-07-03T08:43:59;101119.81;;;22.26;62.75
13011;BME280;6786;57.632;11.962;2022-07-03T08:46:30;101114.44;;;22.26;63.06
13011;BME280;6786;57.632;11.962;2022-07-03T08:48:59;101119.81;;;22.26;63.07
13011;BME280;6786;57.632;11.962;2022-07-03T08:51:28;101121.50;;;22.27;62.67
13011;BME280;6786;57.632;11.962;2022-07-03T08:53:59;101136.94;;;22.25;62.77
13011;BME280;6786;57.632;11.962;2022-07-03T08:56:27;101122.94;;;22.21;62.68
13011;BME280;6786;57.632;11.962;2022-07-03T08:58:58;101132.28;;;22.27;62.97
13011;BME280;6786;57.632;11.962;2022-07-03T09:01:26;101113.59;;;22.16;62.74
13011;BME280;6786;57.632;11.962;2022-07-03T09:03:54;101084.75;;;21.99;62.83
13011;BME280;6786;57.632;11.962;2022-07-03T09:06:24;101147.56;;;22.26;62.79
13011;BME280;6786;57.632;11.962;2022-07-03T09:08:53;101139.63;;;22.25;62.99
13011;BME280;6786;57.632;11.962;2022-07-03T09:11:23;101114.03;;;22.11;62.75
13011;BME280;6786;57.632;11.962;2022-07-03T09:13:51;101142.34;;;22.25;62.76
13011;BME280;6786;57.632;11.962;2022-07-03T09:16:22;101148.28;;;22.19;62.76
13011;BME280;6786;57.632;11.962;2022-07-03T09:18:50;101162.03;;;22.25;62.80
13011;BME280;6786;57.632;11.962;2022-07-03T09:21:18;101164.59;;;22.27;62.72
13011;BME280;6786;57.632;11.962;2022-07-03T09:23:47;101170.13;;;22.25;62.92
13011;BME280;6786;57.632;11.962;2022-07-03T09:26:16;101168.28;;;22.26;63.13
13011;BME280;6786;57.632;11.962;2022-07-03T09:28:47;101162.91;;;22.26;63.15
13011;BME280;6786;57.632;11.962;2022-07-03T09:31:19;101122.44;;;21.99;63.08
13011;BME280;6786;57.632;11.962;2022-07-03T09:33:50;101166.56;;;22.25;62.77
13011;BME280;6786;57.632;11.962;2022-07-03T09:36:18;101154.09;;;22.24;62.83
13011;BME280;6786;57.632;11.962;2022-07-03T09:38:48;101151.84;;;22.19;62.72
13011;BME280;6786;57.632;11.962;2022-07-03T09:41:16;101130.47;;;22.18;62.83
13011;BME280;6786;57.632;11.962;2022-07-03T09:43:44;101133.28;;;22.26;62.84
13011;BME280;6786;57.632;11.962;2022-07-03T09:46:12;101127.91;;;22.26;63.05
13011;BME280;6786;57.632;11.962;2022-07-03T09:48:41;101045.09;;;21.82;62.79
13011;BME280;6786;57.632;11.962;2022-07-03T09:51:13;101122.09;;;22.21;63.18
13011;BME280;6786;57.632;11.962;2022-07-03T09:54:00;101114.44;;;22.16;62.78
13011;BME280;6786;57.632;11.962;2022-07-03T09:56:33;101113.28;;;22.19;62.88
13011;BME280;6786;57.632;11.962;2022-07-03T09:59:04;101124.06;;;22.19;63.15
13011;BME280;6786;57.632;11.962;2022-07-03T10:01:32;101124.78;;;22.21;62.81
13011;BME280;6786;57.632;11.962;2022-07-03T10:04:12;101127.47;;;22.21;62.98
13011;BME280;6786;57.632;11.962;2022-07-03T10:06:49;101125.50;;;22.23;62.85
13011;BME280;6786;57.632;11.962;2022-07-03T10:09:19;101125.50;;;22.23;63.18
13011;BME280;6786;57.632;11.962;2022-07-03T10:11:47;101121.09;;;22.22;62.85
13011;BME280;6786;57.632;11.962;2022-07-03T10:14:16;101040.03;;;21.79;63.06
13011;BME280;6786;57.632;11.962;2022-07-03T10:16:45;101118.38;;;22.22;62.94
13011;BME280;6786;57.632;11.962;2022-07-03T10:19:17;101118.38;;;22.22;63.22
13011;BME280;6786;57.632;11.962;2022-07-03T10:21:51;101116.69;;;22.21;62.96
13011;BME280;6786;57.632;11.962;2022-07-03T10:24:25;101096.59;;;22.15;62.77
13011;BME280;6786;57.632;11.962;2022-07-03T10:26:54;101102.22;;;22.22;63.05
13011;BME280;6786;57.632;11.962;2022-07-03T10:29:24;101086.06;;;22.22;62.72
13011;BME280;6786;57.632;11.962;2022-07-03T10:31:55;100998.09;;;21.67;63.00
13011;BME280;6786;57.632;11.962;2022-07-03T10:34:25;101083.38;;;22.22;62.77
13011;BME280;6786;57.632;11.962;2022-07-03T10:36:58;101079.00;;;22.21;63.01
13011;BME280;6786;57.632;11.962;2022-07-03T10:39:39;101089.78;;;22.21;63.18
13011;BME280;6786;57.632;11.962;2022-07-03T10:42:09;101086.06;;;22.22;63.27
13011;BME280;6786;57.632;11.962;2022-07-03T10:45:07;101106.78;;;22.21;63.19
13011;BME280;6786;57.632;11.962;2022-07-03T10:47:45;101117.56;;;22.21;62.93
13011;BME280;6786;57.632;11.962;2022-07-03T10:50:15;101120.41;;;22.20;63.28
13011;BME280;6786;57.632;11.962;2022-07-03T10:52:45;101116.69;;;22.21;63.11
13011;BME280;6786;57.632;11.962;2022-07-03T10:55:14;101118.53;;;22.20;63.01
13011;BME280;6786;57.632;11.962;2022-07-03T10:57:43;101110.59;;;22.19;63.12
13011;BME280;6786;57.632;11.962;2022-07-03T11:00:31;101113.28;;;22.19;63.32
13011;BME280;6786;57.632;11.962;2022-07-03T11:03:51;101118.69;;;22.19;63.27
13011;BME280;6786;57.632;11.962;2022-07-03T11:06:20;101115.00;;;22.20;63.32
13011;BME280;6786;57.632;11.962;2022-07-03T11:09:11;101120.41;;;22.20;63.04
13011;BME280;6786;57.632;11.962;2022-07-03T11:11:40;101109.63;;;22.20;63.23
13011;BME280;6786;57.632;11.962;2022-07-03T11:14:25;101111.59;;;22.18;63.39
13011;BME280;6786;57.632;11.962;2022-07-03T11:17:17;101107.91;;;22.19;63.20
13011;BME280;6786;57.632;11.962;2022-07-03T11:19:46;101052.91;;;21.85;63.29
13011;BME280;6786;57.632;11.962;2022-07-03T11:22:43;101108.91;;;22.18;63.47
13011;BME280;6786;57.632;11.962;2022-07-03T11:25:15;101100.84;;;22.18;63.16
13011;BME280;6786;57.632;11.962;2022-07-03T11:27:44;101090.06;;;22.18;63.23
13011;BME280;6786;57.632;11.962;2022-07-03T11:30:14;101073.69;;;22.02;63.29
13011;BME280;6786;57.632;11.962;2022-07-03T11:32:52;101106.22;;;22.18;63.24
13011;BME280;6786;57.632;11.962;2022-07-03T11:35:57;101106.22;;;22.18;63.06
13011;BME280;6786;57.632;11.962;2022-07-03T11:38:27;101064.31;;;22.06;63.48
13011;BME280;6786;57.632;11.962;2022-07-03T11:40:58;101073.06;;;22.17;63.12
13011;BME280;6786;57.632;11.962;2022-07-03T11:43:26;101060.75;;;22.15;63.60
13011;BME280;6786;57.632;11.962;2022-07-03T11:45:54;101057.75;;;22.18;63.35
13011;BME280;6786;57.632;11.962;2022-07-03T11:48:25;101072.91;;;22.19;63.47
13011;BME280;6786;57.632;11.962;2022-07-03T11:50:59;101070.22;;;22.19;63.53
13011;BME280;6786;57.632;11.962;2022-07-03T11:53:30;101057.47;;;22.21;63.51
13011;BME280;6786;57.632;11.962;2022-07-03T11:56:01;101047.84;;;22.18;63.26
13011;BME280;6786;57.632;11.962;2022-07-03T11:58:43;101036.22;;;22.18;63.23
13011;BME280;6786;57.632;11.962;2022-07-03T12:01:27;101029.16;;;22.17;63.12
13011;BME280;6786;57.632;11.962;2022-07-03T12:04:03;101022.03;;;22.16;63.32
13011;BME280;6786;57.632;11.962;2022-07-03T12:06:36;101027.13;;;22.19;63.59
13011;BME280;6786;57.632;11.962;2022-07-03T12:09:13;101006.47;;;22.10;63.53
13011;BME280;6786;57.632;11.962;2022-07-03T12:11:51;101020.94;;;22.18;63.41
13011;BME280;6786;57.632;11.962;2022-07-03T12:14:36;101020.06;;;22.18;63.57
13011;BME280;6786;57.632;11.962;2022-07-03T12:17:07;101022.03;;;22.16;63.25
13011;BME280;6786;57.632;11.962;2022-07-03T12:19:35;101019.06;;;22.19;63.39
13011;BME280;6786;57.632;11.962;2022-07-03T12:22:05;101025.44;;;22.18;63.84
13011;BME280;6786;57.632;11.962;2022-07-03T12:24:33;101018.38;;;22.17;63.63
13011;BME280;6786;57.632;11.962;2022-07-03T12:27:06;100986.13;;;21.98;63.83
13011;BME280;6786;57.632;11.962;2022-07-03T12:29:34;101026.31;;;22.18;63.83
13011;BME280;6786;57.632;11.962;2022-07-03T12:32:07;100995.47;;;22.03;63.79
13011;BME280;6786;57.632;11.962;2022-07-03T12:34:37;101025.44;;;22.18;63.65
13011;BME280;6786;57.632;11.962;2022-07-03T12:37:06;101020.06;;;22.18;63.60
13011;BME280;6786;57.632;11.962;2022-07-03T12:39:41;100994.00;;;22.18;63.52
13011;BME280;6786;57.632;11.962;2022-07-03T12:42:17;100989.44;;;22.19;63.71
13011;BME280;6786;57.632;11.962;2022-07-03T12:45:04;101005.59;;;22.19;63.56
13011;BME280;6786;57.632;11.962;2022-07-03T12:47:33;100997.44;;;22.11;63.62
13011;BME280;6786;57.632;11.962;2022-07-03T12:50:04;100958.72;;;21.85;63.72
13011;BME280;6786;57.632;11.962;2022-07-03T12:52:34;100965.53;;;21.89;63.75
13011;BME280;6786;57.632;11.962;2022-07-03T12:55:02;101005.59;;;22.19;63.96
13011;BME280;6786;57.632;11.962;2022-07-03T12:57:32;100998.53;;;22.18;63.53
13011;BME280;6786;57.632;11.962;2022-07-03T13:00:17;101010.97;;;22.19;63.96
13011;BME280;6786;57.632;11.962;2022-07-03T13:02:48;101022.75;;;22.18;63.82
13011;BME280;6786;57.632;11.962;2022-07-03T13:05:17;101009.88;;;22.12;63.67
13011;BME280;6786;57.632;11.962;2022-07-03T13:07:47;101018.38;;;22.17;63.52
13011;BME280;6786;57.632;11.962;2022-07-03T13:10:16;101019.78;;;22.21;63.72
13011;BME280;6786;57.632;11.962;2022-07-03T13:12:47;101020.63;;;22.21;63.79